Six Lakes, MI (48886)

10:47 PM EDT on August 31, 2015 (GMT -0400)
Langston, MI | | Change Station
CLOSE
Current Station
Personal Weather Station
Location: Michigan, MI
Elevation: 892 ft
Nearby Weather Stations

Elev 892 ft 43.31 °N, 85.24 °W | Updated 6 seconds ago

Partly Cloudy
Partly Cloudy
63.1 °F
Feels Like 63.1 °F
N
0.0
Wind Variable Wind from West
Gusts 0.0 mph

Today
High -- | Low -- °F
--% Chance of Precip.
Yesterday
High -- | Low -- °F
Precip. -- in
7:03 AM 8:17 PM
Waning Gibbous, 92% visible
Pressure 30.06 in
Visibility 0.2 miles
Clouds Overcast 500 ft
Dew Point 61 °F
Humidity 92%
Rainfall in
Snow Depth Not available.
UV 0 out of 12
Pollen 10.40 out of 12
Air Quality Not available.
Flu Activity Not available.
METAR KAMN 010234Z AUTO 00000KT 1/4SM FG OVC005 18/17 A3006 RMK AO2 T01750172
Pressure 30.06 in
Visibility 0.2 miles
Clouds Overcast 500 ft
Dew Point 61 °F
Humidity 92%
Rainfall in
Snow Depth Not available.
UV 0 out of 12
Pollen 10.40 out of 12
Air Quality Not available.
Flu Activity Not available.
METAR KAMN 010234Z AUTO 00000KT 1/4SM FG OVC005 18/17 A3006 RMK AO2 T01750172

10-Day Weather Forecast

×

Almanac

Astronomy

Aug. 31, 2015 Rise Set
Actual Time
Civil Twilight
Nautical Twilight
Astronomical Twilight
Moon
Length of Visible Light
Length of Day
Tomorrow will be .
, % of the Moon is Illuminated

Today's Extremes

State Highs State Lows

Community

WunderPhotos

Upload Photos

1,851,459 photos uploaded!

WunderBlogs® & News

Nearby

Air Quality

  Air Quality AQ Index Pollutant
Not available.

Snow Depth

Station Depth Elevation

Earthquake Activity

City Distance Mag. Time & Date
Minimum magnitude displayed is 2.5.

Coastal Water Temperatures

Place Temperature

Stations

Nearby Weather Stations

Station Location Temp. Windchill Dew Point Humidity Wind Precip. Elev Updated Type